Terminal Aerodrome Forecast
Issued by NWS Newport/Morehead City, NC

Home | Current Version | Previous Version | Graphics & Text | Print | Product List | Glossary On
Versions: 1 2 3 4 5 6 7 8 9 10 11 12 13 14 15 16 17 18 19 20
880
FTUS42 KMHX 232000 AAA
TAFEWN
TAF AMD
KEWN 232000Z 2320/2418 20010KT 6SM -SHRA SCT007 OVC020
      TEMPO 2320/2321 1SM RA BKN007
     FM232100 21011KT 3SM SHRA SCT007 OVC015
     FM240300 21009KT 4SM SHRA OVC008 WS020/19045KT
     FM240600 21007KT P6SM VCSH OVC008 WS020/20040KT
     FM240900 24005KT P6SM OVC008
     FM241500 23005KT P6SM BKN025=

USA.gov is the U.S. government's official web portal to all federal, state and local government web resources and services.